Time;durP1;ratioP1;P1;durP2;ratioP2;P2;SDS_P1;SDS_P2;PMS_P1;PMS_P2;Temp;Humidity;BMP_temperature;BMP_pressure;BME280_temperature;BME280_humidity;BME280_pressure;Samples;Min_cycle;Max_cycle;Signal;HPM_P1;HPM_P2
2022/02/13 00:02:54;;;;;;;10.00;5.83;;;;;;;;;;6158475;23;20552;-87
2022/02/13 00:05:58;;;;;;;9.00;6.07;;;;;;;;;;6169038;23;20519;-86
2022/02/13 00:09:02;;;;;;;15.63;6.63;;;;;;;;;;6186004;23;20501;-86
2022/02/13 00:12:07;;;;;;;9.13;6.27;;;;;;;;;;6175616;23;20556;-86
2022/02/13 00:15:12;;;;;;;9.73;6.20;;;;;;;;;;6169476;23;20504;-87
2022/02/13 00:18:16;;;;;;;9.10;6.10;;;;;;;;;;6170200;23;20556;-86
2022/02/13 00:21:20;;;;;;;8.93;6.03;;;;;;;;;;6193549;23;20583;-86
2022/02/13 00:24:25;;;;;;;8.40;6.00;;;;;;;;;;6176357;23;20548;-86
2022/02/13 00:27:29;;;;;;;9.93;6.23;;;;;;;;;;6203376;23;21049;-86
2022/02/13 00:30:33;;;;;;;14.20;5.87;;;;;;;;;;6181542;23;20576;-87
2022/02/13 00:33:37;;;;;;;12.93;6.03;;;;;;;;;;6168934;23;20834;-86
2022/02/13 00:36:42;;;;;;;9.43;5.70;;;;;;;;;;6186112;23;21051;-86
2022/02/13 00:39:46;;;;;;;8.23;5.77;;;;;;;;;;6164464;23;20599;-86
2022/02/13 00:42:49;;;;;;;8.83;5.83;;;;;;;;;;6186395;23;20513;-86
2022/02/13 00:45:54;;;;;;;10.40;5.97;;;;;;;;;;6169918;23;20508;-86
2022/02/13 00:48:59;;;;;;;7.80;5.73;;;;;;;;;;6170118;23;20501;-86
2022/02/13 00:52:04;;;;;;;8.17;5.77;;;;;;;;;;6170321;23;20505;-86
2022/02/13 00:55:09;;;;;;;8.60;5.57;;;;;;;;;;6169916;23;20818;-86
2022/02/13 00:58:13;;;;;;;9.67;5.73;;;;;;;;;;6170358;23;20560;-86
2022/02/13 01:01:18;;;;;;;9.53;5.73;;;;;;;;;;6159774;23;20583;-86
2022/02/13 01:04:22;;;;;;;12.57;6.63;;;;;;;;;;6159168;23;20560;-86
2022/02/13 01:07:26;;;;;;;7.57;5.63;;;;;;;;;;6152917;23;20511;-86
2022/02/13 01:10:31;;;;;;;9.37;5.57;;;;;;;;;;6165314;23;20572;-86
2022/02/13 01:13:35;;;;;;;8.47;5.37;;;;;;;;;;6153487;23;20509;-87
2022/02/13 01:16:39;;;;;;;10.13;5.63;;;;;;;;;;6153129;23;20504;-86
2022/02/13 01:19:43;;;;;;;7.63;5.60;;;;;;;;;;6168861;23;20910;-86
2022/02/13 01:22:48;;;;;;;10.00;5.87;;;;;;;;;;6153856;23;20505;-86
2022/02/13 01:25:52;;;;;;;8.43;6.13;;;;;;;;;;6153814;23;20519;-86
2022/02/13 01:28:56;;;;;;;11.07;6.30;;;;;;;;;;6170305;23;20501;-87
2022/02/13 01:32:01;;;;;;;8.03;5.83;;;;;;;;;;6187696;23;20512;-86
2022/02/13 01:35:05;;;;;;;9.00;5.70;;;;;;;;;;6159630;23;20556;-86
2022/02/13 01:38:10;;;;;;;8.47;6.17;;;;;;;;;;6143523;23;20608;-86
2022/02/13 01:41:14;;;;;;;10.03;6.03;;;;;;;;;;6188071;23;21154;-86
2022/02/13 01:44:23;;;;;;;8.00;5.60;;;;;;;;;;6170119;23;21051;-86
2022/02/13 01:47:29;;;;;;;8.90;5.67;;;;;;;;;;6160863;23;20556;-86
2022/02/13 01:50:34;;;;;;;9.57;5.53;;;;;;;;;;6160090;23;20588;-86
2022/02/13 01:53:38;;;;;;;8.17;5.73;;;;;;;;;;6177784;23;20556;-86
2022/02/13 01:56:43;;;;;;;9.50;5.67;;;;;;;;;;6204009;23;20504;-86
2022/02/13 01:59:48;;;;;;;10.57;5.90;;;;;;;;;;6203165;23;20611;-86
2022/02/13 02:02:52;;;;;;;8.37;5.47;;;;;;;;;;6170132;23;20515;-86
2022/02/13 02:05:56;;;;;;;6.77;5.53;;;;;;;;;;6187518;23;21044;-86
2022/02/13 02:09:02;;;;;;;7.80;5.37;;;;;;;;;;6176669;23;21104;-87
2022/02/13 02:12:07;;;;;;;8.07;5.57;;;;;;;;;;6187682;23;20505;-86
2022/02/13 02:15:11;;;;;;;10.03;5.93;;;;;;;;;;6170515;23;21037;-86
2022/02/13 02:18:15;;;;;;;8.93;5.43;;;;;;;;;;6170436;23;20562;-86
2022/02/13 02:21:20;;;;;;;9.73;5.87;;;;;;;;;;6177214;23;20592;-86
2022/02/13 02:24:24;;;;;;;9.80;5.77;;;;;;;;;;6159895;23;20544;-86
2022/02/13 02:27:29;;;;;;;8.73;5.90;;;;;;;;;;6186854;23;20508;-86
2022/02/13 02:30:33;;;;;;;9.77;5.87;;;;;;;;;;6175943;23;20572;-87
2022/02/13 02:33:38;;;;;;;8.03;5.83;;;;;;;;;;6162400;23;20807;-87
2022/02/13 02:36:42;;;;;;;8.53;5.73;;;;;;;;;;6168962;23;20556;-87
2022/02/13 02:39:46;;;;;;;7.90;5.73;;;;;;;;;;6151895;23;20616;-87
2022/02/13 02:42:50;;;;;;;9.17;5.90;;;;;;;;;;6145527;23;20505;-87
2022/02/13 02:45:55;;;;;;;10.63;5.90;;;;;;;;;;6179122;23;20504;-87
2022/02/13 02:48:59;;;;;;;8.80;5.30;;;;;;;;;;6162295;23;20506;-87
2022/02/13 02:52:03;;;;;;;7.70;5.20;;;;;;;;;;6162315;23;21029;-87
2022/02/13 02:55:08;;;;;;;6.77;4.50;;;;;;;;;;6179143;23;20501;-87
2022/02/13 02:58:13;;;;;;;9.50;5.00;;;;;;;;;;6144713;23;20556;-87
2022/02/13 03:01:17;;;;;;;9.80;5.53;;;;;;;;;;6168632;23;20584;-87
2022/02/13 03:04:21;;;;;;;8.07;5.53;;;;;;;;;;6151758;23;20551;-87
2022/02/13 03:07:25;;;;;;;8.10;5.40;;;;;;;;;;6162043;23;20505;-87
2022/02/13 03:10:29;;;;;;;8.70;5.03;;;;;;;;;;6157215;23;20871;-87
2022/02/13 03:13:33;;;;;;;8.20;5.17;;;;;;;;;;6178540;23;20504;-87
2022/02/13 03:16:37;;;;;;;8.37;5.97;;;;;;;;;;6161787;23;20500;-87
2022/02/13 03:19:41;;;;;;;7.67;5.20;;;;;;;;;;6160443;23;20556;-87
2022/02/13 03:22:46;;;;;;;10.07;4.83;;;;;;;;;;6162210;23;20505;-87
2022/02/13 03:25:51;;;;;;;8.23;5.13;;;;;;;;;;6145455;23;20516;-87
2022/02/13 03:28:56;;;;;;;7.87;5.47;;;;;;;;;;6161570;23;20501;-87
2022/02/13 03:32:00;;;;;;;7.57;5.10;;;;;;;;;;6151857;23;21116;-87
2022/02/13 03:35:04;;;;;;;7.67;5.50;;;;;;;;;;6168444;23;20583;-87
2022/02/13 03:38:09;;;;;;;10.03;5.50;;;;;;;;;;6135508;23;21091;-87
2022/02/13 03:41:13;;;;;;;7.00;5.03;;;;;;;;;;6202961;23;20646;-87
2022/02/13 03:44:17;;;;;;;8.20;5.07;;;;;;;;;;6208151;23;20503;-87
2022/02/13 03:47:21;;;;;;;8.70;5.10;;;;;;;;;;6190744;23;20503;-87
2022/02/13 03:50:26;;;;;;;8.20;5.27;;;;;;;;;;6162461;23;21128;-87
2022/02/13 03:53:30;;;;;;;8.40;5.67;;;;;;;;;;6144056;23;20821;-87
2022/02/13 03:56:34;;;;;;;8.30;5.40;;;;;;;;;;6160513;23;20501;-87
2022/02/13 03:59:38;;;;;;;6.57;4.77;;;;;;;;;;6179879;23;20555;-87
2022/02/13 04:02:42;;;;;;;8.03;5.17;;;;;;;;;;6169255;23;20543;-87
2022/02/13 04:05:47;;;;;;;6.87;4.63;;;;;;;;;;6145715;23;20501;-87
2022/02/13 04:08:51;;;;;;;5.93;4.37;;;;;;;;;;6145547;23;20496;-87
2022/02/13 04:11:55;;;;;;;4.90;3.60;;;;;;;;;;6153609;23;20878;-87
2022/02/13 04:15:01;;;;;;;6.93;4.40;;;;;;;;;;6162193;23;20505;-87
2022/02/13 04:18:16;;;;;;;8.83;4.67;;;;;;;;;;6179391;23;20500;-87
2022/02/13 04:21:20;;;;;;;7.70;4.47;;;;;;;;;;6152532;23;20592;-87
2022/02/13 04:24:24;;;;;;;5.63;4.20;;;;;;;;;;6162167;23;20504;-87
2022/02/13 04:27:29;;;;;;;5.90;4.60;;;;;;;;;;6145148;23;20517;-87
2022/02/13 04:30:33;;;;;;;4.23;3.80;;;;;;;;;;6158965;23;21140;-87
2022/02/13 04:33:37;;;;;;;6.27;4.87;;;;;;;;;;6145555;23;20500;-87
2022/02/13 04:36:41;;;;;;;6.93;4.43;;;;;;;;;;6162293;23;20505;-89
2022/02/13 04:39:45;;;;;;;5.87;4.03;;;;;;;;;;6162076;23;20556;-89
2022/02/13 04:42:50;;;;;;;8.10;4.80;;;;;;;;;;6179067;23;20501;-89
2022/02/13 04:45:54;;;;;;;5.87;4.20;;;;;;;;;;6145201;23;20504;-89
2022/02/13 04:48:58;;;;;;;6.13;4.10;;;;;;;;;;6162102;23;20496;-89
2022/02/13 04:52:03;;;;;;;5.57;3.90;;;;;;;;;;6151981;23;21143;-89
2022/02/13 04:55:07;;;;;;;5.90;4.30;;;;;;;;;;6161878;23;20508;-89
2022/02/13 04:58:11;;;;;;;4.90;3.73;;;;;;;;;;6179108;23;21029;-89
2022/02/13 05:01:15;;;;;;;6.67;3.30;;;;;;;;;;6138975;23;20568;-89
2022/02/13 05:04:19;;;;;;;6.63;4.20;;;;;;;;;;6161979;23;20505;-89
2022/02/13 05:07:23;;;;;;;5.73;3.60;;;;;;;;;;6161768;23;20505;-89
2022/02/13 05:10:28;;;;;;;6.37;4.27;;;;;;;;;;6141902;23;20568;-89
2022/02/13 05:13:32;;;;;;;8.23;5.07;;;;;;;;;;6135109;23;20552;-89
2022/02/13 05:16:36;;;;;;;7.83;4.83;;;;;;;;;;6161795;23;20500;-89
2022/02/13 05:19:40;;;;;;;8.80;5.27;;;;;;;;;;6161740;23;20556;-89
2022/02/13 05:22:44;;;;;;;6.73;4.60;;;;;;;;;;6161773;23;20505;-89
2022/02/13 05:25:48;;;;;;;6.30;4.67;;;;;;;;;;6178853;23;20504;-89
2022/02/13 05:28:53;;;;;;;7.87;4.70;;;;;;;;;;6161679;23;20504;-89
2022/02/13 05:31:57;;;;;;;5.63;3.63;;;;;;;;;;6135809;23;20597;-89
2022/02/13 05:35:01;;;;;;;6.30;3.80;;;;;;;;;;6162242;23;20505;-89
2022/02/13 05:38:05;;;;;;;6.40;3.80;;;;;;;;;;6179107;23;20504;-89
2022/02/13 05:41:10;;;;;;;4.73;3.67;;;;;;;;;;6138428;23;20599;-89
2022/02/13 05:44:14;;;;;;;4.40;3.60;;;;;;;;;;6161737;23;20500;-89
2022/02/13 05:47:19;;;;;;;5.37;3.67;;;;;;;;;;6161665;23;20505;-89
2022/02/13 05:50:23;;;;;;;7.23;3.97;;;;;;;;;;6176101;23;20568;-89
2022/02/13 05:53:27;;;;;;;4.83;3.67;;;;;;;;;;6161936;23;20504;-89
2022/02/13 05:56:32;;;;;;;4.27;3.03;;;;;;;;;;6161644;23;20500;-89
2022/02/13 05:59:37;;;;;;;5.67;3.40;;;;;;;;;;6178415;23;20557;-89
2022/02/13 06:02:41;;;;;;;5.93;3.67;;;;;;;;;;6168445;23;20870;-89
2022/02/13 06:05:45;;;;;;;3.60;2.80;;;;;;;;;;6178507;23;20504;-89
2022/02/13 06:08:49;;;;;;;3.80;2.80;;;;;;;;;;6178514;23;20807;-89
2022/02/13 06:11:54;;;;;;;5.70;3.40;;;;;;;;;;6169199;23;20886;-89
2022/02/13 06:14:58;;;;;;;8.27;3.30;;;;;;;;;;6161754;23;20504;-89
2022/02/13 06:18:03;;;;;;;6.30;2.87;;;;;;;;;;6178640;23;20802;-89
2022/02/13 06:21:07;;;;;;;4.20;3.30;;;;;;;;;;6155196;23;20611;-89
2022/02/13 06:24:11;;;;;;;7.17;3.20;;;;;;;;;;6189327;23;20803;-89
2022/02/13 06:27:15;;;;;;;5.80;3.30;;;;;;;;;;6185213;23;20504;-89
2022/02/13 06:30:19;;;;;;;5.27;3.00;;;;;;;;;;6175838;23;21119;-89
2022/02/13 06:33:23;;;;;;;5.13;3.40;;;;;;;;;;6195306;23;20504;-89
2022/02/13 06:36:27;;;;;;;4.53;3.13;;;;;;;;;;6151690;23;20556;-89
2022/02/13 06:39:31;;;;;;;4.93;3.10;;;;;;;;;;6168126;23;20600;-89
2022/02/13 06:42:35;;;;;;;3.73;2.70;;;;;;;;;;6151465;23;20556;-89
2022/02/13 06:45:41;;;;;;;3.77;3.07;;;;;;;;;;6151829;23;20846;-89
2022/02/13 06:48:45;;;;;;;4.17;2.80;;;;;;;;;;6161258;23;20504;-90
2022/02/13 06:51:49;;;;;;;5.33;2.93;;;;;;;;;;6187065;23;20762;-90
2022/02/13 06:54:53;;;;;;;5.40;3.07;;;;;;;;;;6178575;23;20505;-89
2022/02/13 06:57:58;;;;;;;5.17;3.30;;;;;;;;;;6150879;23;20544;-89
2022/02/13 07:01:02;;;;;;;4.17;2.87;;;;;;;;;;6150923;23;20615;-89
2022/02/13 07:04:06;;;;;;;5.23;2.67;;;;;;;;;;6178135;23;20501;-90
2022/02/13 07:07:10;;;;;;;5.37;2.90;;;;;;;;;;6160957;23;20504;-90
2022/02/13 07:10:14;;;;;;;4.57;3.20;;;;;;;;;;6175910;23;20568;-89
2022/02/13 07:13:18;;;;;;;4.73;3.13;;;;;;;;;;6178067;23;20536;-89
2022/02/13 07:16:22;;;;;;;2.90;2.60;;;;;;;;;;6161175;23;20500;-89
2022/02/13 07:19:26;;;;;;;5.47;2.80;;;;;;;;;;6160818;23;20505;-89
2022/02/13 07:22:31;;;;;;;5.67;2.57;;;;;;;;;;6178062;23;20500;-90
2022/02/13 07:25:35;;;;;;;3.77;2.83;;;;;;;;;;6194940;23;20505;-90
2022/02/13 07:32:03;;;;;;;5.03;2.47;;;;;;;;;;6168338;23;21124;-89
2022/02/13 07:35:07;;;;;;;4.93;2.47;;;;;;;;;;6162859;23;20811;-90
2022/02/13 07:38:11;;;;;;;5.47;2.67;;;;;;;;;;6186944;23;20559;-90
2022/02/13 07:41:15;;;;;;;4.20;2.63;;;;;;;;;;6173372;23;20615;-90
2022/02/13 07:44:19;;;;;;;5.57;2.80;;;;;;;;;;6152736;23;20556;-90
2022/02/13 07:47:25;;;;;;;4.00;2.90;;;;;;;;;;6180134;23;20504;-90
2022/02/13 07:50:29;;;;;;;5.07;2.80;;;;;;;;;;6176753;23;20576;-90
2022/02/13 07:53:33;;;;;;;4.33;3.07;;;;;;;;;;6162739;23;20505;-91
2022/02/13 07:56:37;;;;;;;4.00;2.77;;;;;;;;;;6162924;23;20505;-91
2022/02/13 07:59:44;;;;;;;3.00;2.53;;;;;;;;;;6179507;23;20556;-90
2022/02/13 08:02:48;;;;;;;4.53;2.83;;;;;;;;;;6169939;23;20548;-90
2022/02/13 08:05:53;;;;;;;5.27;2.90;;;;;;;;;;6186909;23;20556;-90
2022/02/13 08:08:57;;;;;;;3.53;2.60;;;;;;;;;;6162461;23;20509;-91
2022/02/13 08:12:01;;;;;;;3.43;2.90;;;;;;;;;;6152986;23;20560;-90
2022/02/13 08:15:05;;;;;;;4.90;3.10;;;;;;;;;;6162644;23;20508;-91
2022/02/13 08:18:13;;;;;;;2.80;2.50;;;;;;;;;;6162603;23;20505;-90
2022/02/13 08:21:18;;;;;;;6.53;2.73;;;;;;;;;;6173577;23;20615;-91
2022/02/13 08:24:22;;;;;;;5.27;2.50;;;;;;;;;;6186827;23;20560;-91
2022/02/13 08:27:25;;;;;;;3.77;2.13;;;;;;;;;;6179097;23;20516;-91
2022/02/13 08:30:29;;;;;;;3.30;2.07;;;;;;;;;;6152506;23;20579;-90
2022/02/13 08:33:34;;;;;;;2.97;1.83;;;;;;;;;;6179418;23;20501;-91
2022/02/13 08:36:37;;;;;;;4.47;2.17;;;;;;;;;;6162469;23;20504;-91
2022/02/13 08:39:42;;;;;;;1.80;1.50;;;;;;;;;;6179268;23;20496;-91
2022/02/13 08:42:46;;;;;;;3.43;1.73;;;;;;;;;;6178895;23;20509;-91
2022/02/13 08:45:50;;;;;;;3.30;1.87;;;;;;;;;;6161918;23;20508;-91
2022/02/13 08:48:54;;;;;;;2.87;2.00;;;;;;;;;;6162323;23;20505;-91
2022/02/13 08:51:59;;;;;;;6.07;3.13;;;;;;;;;;6152811;23;20568;-91
2022/02/13 08:55:04;;;;;;;2.97;1.40;;;;;;;;;;6162262;23;20606;-91
2022/02/13 08:58:15;;;;;;;2.37;1.53;;;;;;;;;;6178848;23;20157;-91
2022/02/13 09:01:43;;;;;;;2.07;1.60;;;;;;;;;;6161875;23;20515;-90
2022/02/13 09:04:47;;;;;;;2.17;1.50;;;;;;;;;;6162158;23;20460;-90
2022/02/13 09:07:52;;;;;;;2.47;1.57;;;;;;;;;;6152232;23;20164;-90
2022/02/13 09:10:57;;;;;;;2.33;1.83;;;;;;;;;;6151529;23;20185;-90
2022/02/13 09:14:03;;;;;;;3.00;1.63;;;;;;;;;;6162023;23;20320;-90
2022/02/13 09:17:07;;;;;;;5.90;1.93;;;;;;;;;;6196064;23;20157;-88
2022/02/13 09:20:12;;;;;;;2.13;1.87;;;;;;;;;;6194053;23;20204;-88
2022/02/13 09:23:17;;;;;;;1.87;1.67;;;;;;;;;;6162117;23;20602;-88
2022/02/13 09:26:47;;;;;;;2.17;1.40;;;;;;;;;;6162343;23;20483;-88
2022/02/13 09:29:52;;;;;;;2.43;1.63;;;;;;;;;;6161493;23;20153;-85
2022/02/13 09:32:57;;;;;;;2.77;1.53;;;;;;;;;;6178842;23;20157;-85
2022/02/13 09:39:54;;;;;;;2.43;1.47;;;;;;;;;;6168785;23;20264;-89
2022/02/13 09:43:08;;;;;;;2.23;1.60;;;;;;;;;;6135364;23;20625;-90
2022/02/13 09:46:15;;;;;;;2.03;1.47;;;;;;;;;;6152259;23;20264;-89
2022/02/13 09:49:22;;;;;;;4.47;2.00;;;;;;;;;;6169839;23;20181;-90
2022/02/13 09:52:26;;;;;;;2.00;1.60;;;;;;;;;;6152045;23;20484;-90
2022/02/13 09:55:32;;;;;;;5.07;2.40;;;;;;;;;;6168939;23;20176;-89
2022/02/13 09:58:36;;;;;;;3.33;2.20;;;;;;;;;;6145061;23;20157;-89
2022/02/13 10:01:45;;;;;;;4.63;2.70;;;;;;;;;;6136936;23;20200;-89
2022/02/13 10:04:49;;;;;;;5.57;2.50;;;;;;;;;;6161856;23;20157;-90
2022/02/13 10:07:53;;;;;;;5.83;2.20;;;;;;;;;;6178420;23;20472;-89
2022/02/13 10:11:25;;;;;;;3.43;2.27;;;;;;;;;;6156859;23;20188;-87
2022/02/13 10:14:30;;;;;;;4.40;2.33;;;;;;;;;;6144819;23;20582;-84
2022/02/13 10:27:25;;;;;;;5.33;2.00;;;;;;;;;;6168025;23;20173;-84
2022/02/13 10:30:58;;;;;;;3.63;2.20;;;;;;;;;;6163043;23;20192;-84
2022/02/13 10:34:09;;;;;;;7.77;3.23;;;;;;;;;;6153723;23;20168;-83
2022/02/13 10:38:01;;;;;;;2.50;1.97;;;;;;;;;;6144274;23;20157;-85
2022/02/13 10:41:14;;;;;;;4.40;1.80;;;;;;;;;;6159420;23;20205;-83
2022/02/13 10:44:28;;;;;;;2.27;1.80;;;;;;;;;;6168367;23;20483;-83
2022/02/13 10:47:33;;;;;;;2.90;1.70;;;;;;;;;;6161662;23;20153;-85
2022/02/13 10:50:40;;;;;;;4.53;2.00;;;;;;;;;;6174376;23;20184;-83
2022/02/13 10:53:44;;;;;;;4.27;2.00;;;;;;;;;;6161515;23;20464;-85
2022/02/13 10:56:49;;;;;;;4.00;1.90;;;;;;;;;;6178384;23;20153;-89
2022/02/13 10:59:53;;;;;;;3.10;1.90;;;;;;;;;;6162185;23;20153;-90
2022/02/13 11:03:04;;;;;;;4.23;2.30;;;;;;;;;;6179087;23;20149;-90
2022/02/13 11:06:08;;;;;;;2.70;2.00;;;;;;;;;;6150888;23;20169;-86
2022/02/13 11:09:27;;;;;;;6.63;2.13;;;;;;;;;;6180754;23;20153;-85
2022/02/13 11:12:31;;;;;;;4.30;2.20;;;;;;;;;;6166004;23;20157;-86
2022/02/13 11:15:38;;;;;;;4.33;2.47;;;;;;;;;;6165435;23;20157;-86
2022/02/13 11:18:44;;;;;;;6.13;2.40;;;;;;;;;;6156138;23;20168;-86
2022/02/13 11:21:49;;;;;;;4.17;2.30;;;;;;;;;;6173130;23;20201;-86
2022/02/13 11:24:54;;;;;;;3.03;2.27;;;;;;;;;;6173308;23;20173;-87
2022/02/13 11:27:59;;;;;;;2.83;2.13;;;;;;;;;;6183758;23;20463;-87
2022/02/13 11:31:03;;;;;;;3.60;2.37;;;;;;;;;;6161096;23;20510;-86
2022/02/13 11:34:08;;;;;;;4.27;2.33;;;;;;;;;;6183982;23;20471;-91
2022/02/13 11:37:19;;;;;;;5.67;2.30;;;;;;;;;;6154549;23;20173;-84
2022/02/13 11:40:39;;;;;;;4.37;2.53;;;;;;;;;;6160499;23;20201;-86
2022/02/13 11:43:59;;;;;;;3.47;2.33;;;;;;;;;;6146947;23;20162;-85
2022/02/13 11:47:05;;;;;;;3.27;2.97;;;;;;;;;;6135650;23;20169;-85
2022/02/13 11:50:14;;;;;;;4.27;2.47;;;;;;;;;;6135745;23;20189;-86
2022/02/13 11:53:27;;;;;;;7.10;2.63;;;;;;;;;;6135876;23;20169;-86
2022/02/13 11:56:31;;;;;;;4.03;2.33;;;;;;;;;;6135575;23;20173;-89
2022/02/13 11:59:53;;;;;;;4.40;2.30;;;;;;;;;;6162694;23;20157;-89
2022/02/13 12:02:58;;;;;;;4.37;2.33;;;;;;;;;;6146168;23;20161;-91
2022/02/13 12:06:02;;;;;;;7.23;2.97;;;;;;;;;;6152911;23;20172;-89
2022/02/13 12:09:11;;;;;;;3.30;2.40;;;;;;;;;;6162290;23;20157;-88
2022/02/13 12:12:22;;;;;;;6.47;3.97;;;;;;;;;;6145447;23;20157;-89
2022/02/13 12:15:41;;;;;;;5.07;3.03;;;;;;;;;;6145936;23;20590;-89
2022/02/13 12:18:50;;;;;;;4.00;2.67;;;;;;;;;;6153035;23;20165;-89
2022/02/13 12:22:22;;;;;;;5.13;3.10;;;;;;;;;;6152905;23;20200;-86
2022/02/13 12:25:42;;;;;;;4.53;2.47;;;;;;;;;;6164723;23;20157;-89
2022/02/13 12:28:46;;;;;;;7.00;3.07;;;;;;;;;;6161988;23;20152;-90
2022/02/13 12:32:23;;;;;;;6.87;3.23;;;;;;;;;;6137035;23;20188;-85
2022/02/13 12:35:39;;;;;;;7.00;3.67;;;;;;;;;;6165483;23;20480;-86
2022/02/13 12:38:43;;;;;;;6.60;3.40;;;;;;;;;;6145669;23;20164;-88
2022/02/13 12:42:27;;;;;;;9.53;3.53;;;;;;;;;;6165022;23;20200;-87
2022/02/13 12:45:34;;;;;;;7.77;3.07;;;;;;;;;;6161574;23;20157;-87
2022/02/13 12:48:38;;;;;;;6.17;3.20;;;;;;;;;;6145647;23;20149;-87
2022/02/13 12:51:43;;;;;;;7.60;3.00;;;;;;;;;;6151649;23;20184;-88
2022/02/13 12:54:48;;;;;;;6.10;3.43;;;;;;;;;;6162177;23;20157;-89
2022/02/13 12:57:55;;;;;;;5.23;2.93;;;;;;;;;;6152300;23;20176;-89
2022/02/13 13:01:01;;;;;;;5.93;2.70;;;;;;;;;;6168470;23;20510;-88
2022/02/13 13:04:05;;;;;;;5.80;2.50;;;;;;;;;;6162294;23;20157;-89
2022/02/13 13:07:20;;;;;;;4.20;2.50;;;;;;;;;;6152012;23;20625;-88
2022/02/13 13:10:30;;;;;;;4.17;2.37;;;;;;;;;;6142220;23;20192;-88
2022/02/13 13:13:37;;;;;;;9.43;2.90;;;;;;;;;;6161827;23;20153;-88
2022/02/13 13:16:41;;;;;;;4.87;2.93;;;;;;;;;;6144828;23;20153;-87
2022/02/13 13:19:45;;;;;;;7.57;3.40;;;;;;;;;;6161417;23;20152;-87
2022/02/13 13:23:13;;;;;;;6.70;2.83;;;;;;;;;;6134785;23;20196;-89
2022/02/13 13:26:17;;;;;;;4.30;3.00;;;;;;;;;;6144830;23;20470;-89
2022/02/13 13:29:33;;;;;;;4.77;2.80;;;;;;;;;;6178574;23;20152;-88
2022/02/13 13:32:40;;;;;;;6.70;2.80;;;;;;;;;;6151687;23;20494;-88
2022/02/13 13:35:53;;;;;;;5.87;3.30;;;;;;;;;;6178316;23;20157;-88
2022/02/13 13:38:57;;;;;;;5.20;3.27;;;;;;;;;;6161830;23;20153;-88
2022/02/13 13:42:15;;;;;;;7.83;3.20;;;;;;;;;;6135579;23;20201;-88
2022/02/13 13:45:28;;;;;;;7.27;2.80;;;;;;;;;;6161765;23;20157;-88
2022/02/13 13:48:32;;;;;;;5.97;2.87;;;;;;;;;;6154265;23;20173;-88
2022/02/13 13:51:36;;;;;;;5.27;2.77;;;;;;;;;;6169054;23;20188;-89
2022/02/13 13:54:40;;;;;;;5.57;2.80;;;;;;;;;;6145375;23;20156;-89
2022/02/13 13:57:45;;;;;;;6.03;2.77;;;;;;;;;;6145302;23;20157;-89
2022/02/13 14:00:49;;;;;;;6.50;2.90;;;;;;;;;;6157104;23;20193;-89
2022/02/13 14:03:53;;;;;;;5.03;2.67;;;;;;;;;;6144735;23;20153;-89
2022/02/13 14:06:57;;;;;;;3.80;2.47;;;;;;;;;;6144407;23;20152;-89
2022/02/13 14:10:01;;;;;;;5.27;2.73;;;;;;;;;;6143501;23;20156;-89
2022/02/13 14:13:10;;;;;;;5.83;2.83;;;;;;;;;;6161440;23;20586;-88
2022/02/13 14:16:15;;;;;;;5.20;2.47;;;;;;;;;;6161334;23;20153;-89
2022/02/13 14:19:18;;;;;;;4.70;2.53;;;;;;;;;;6160957;23;20156;-89
2022/02/13 14:22:23;;;;;;;6.30;2.70;;;;;;;;;;6161251;23;20185;-89
2022/02/13 14:25:28;;;;;;;7.23;3.80;;;;;;;;;;6161268;23;20157;-89
2022/02/13 14:28:33;;;;;;;7.13;3.10;;;;;;;;;;6161078;23;20153;-89
2022/02/13 14:31:38;;;;;;;5.97;2.93;;;;;;;;;;6153543;23;20185;-88
2022/02/13 14:34:42;;;;;;;5.07;2.57;;;;;;;;;;6161247;23;20156;-88
2022/02/13 14:37:49;;;;;;;5.40;2.90;;;;;;;;;;6145009;23;20153;-87
2022/02/13 14:40:54;;;;;;;5.57;3.00;;;;;;;;;;6140530;23;20196;-87
2022/02/13 14:43:59;;;;;;;5.20;2.90;;;;;;;;;;6177945;23;20153;-87
2022/02/13 14:47:03;;;;;;;5.47;2.60;;;;;;;;;;6144424;23;20161;-87
2022/02/13 14:50:09;;;;;;;6.13;2.53;;;;;;;;;;6159732;23;20192;-87
2022/02/13 14:53:15;;;;;;;5.70;2.50;;;;;;;;;;6144595;23;20153;-87
2022/02/13 14:56:20;;;;;;;4.83;2.33;;;;;;;;;;6151005;23;20169;-88
2022/02/13 14:59:25;;;;;;;7.67;2.33;;;;;;;;;;6161220;23;20157;-88
2022/02/13 15:02:31;;;;;;;7.43;2.60;;;;;;;;;;6144314;23;20181;-88
2022/02/13 15:05:42;;;;;;;5.57;2.80;;;;;;;;;;6146189;23;20161;-89
2022/02/13 15:08:46;;;;;;;4.57;2.20;;;;;;;;;;6134179;23;20172;-88
2022/02/13 15:11:50;;;;;;;3.33;2.20;;;;;;;;;;6151155;23;20189;-88
2022/02/13 15:14:54;;;;;;;7.23;2.47;;;;;;;;;;6160965;23;20157;-88
2022/02/13 15:17:58;;;;;;;3.13;2.30;;;;;;;;;;6144113;23;20157;-88
2022/02/13 15:21:02;;;;;;;8.80;2.50;;;;;;;;;;6155660;23;20649;-88
2022/02/13 15:24:07;;;;;;;2.30;2.10;;;;;;;;;;6160871;23;20152;-89
2022/02/13 15:27:13;;;;;;;5.17;2.67;;;;;;;;;;6161913;23;20153;-88
2022/02/13 15:30:16;;;;;;;6.50;2.50;;;;;;;;;;6176941;23;20192;-88
2022/02/13 15:33:20;;;;;;;4.20;2.47;;;;;;;;;;6145037;23;20153;-87
2022/02/13 15:36:25;;;;;;;3.47;2.50;;;;;;;;;;6161910;23;20157;-88
2022/02/13 15:39:29;;;;;;;7.23;2.80;;;;;;;;;;6150962;23;20168;-87
2022/02/13 15:42:33;;;;;;;5.73;2.60;;;;;;;;;;6138705;23;20205;-90
2022/02/13 15:45:39;;;;;;;6.30;2.50;;;;;;;;;;6160722;23;20602;-90
2022/02/13 15:48:43;;;;;;;8.07;2.10;;;;;;;;;;6160617;23;20157;-90
2022/02/13 15:51:47;;;;;;;5.87;2.50;;;;;;;;;;6138015;23;20189;-89
2022/02/13 15:54:51;;;;;;;4.17;2.87;;;;;;;;;;6149483;23;20153;-89
2022/02/13 15:57:55;;;;;;;7.07;2.93;;;;;;;;;;6116633;23;20468;-89
2022/02/13 16:00:59;;;;;;;3.97;2.40;;;;;;;;;;6132928;23;20157;-88
2022/02/13 16:04:04;;;;;;;4.87;2.50;;;;;;;;;;6106558;23;20666;-89
2022/02/13 16:07:08;;;;;;;3.40;2.20;;;;;;;;;;6106572;23;20169;-89
2022/02/13 16:10:13;;;;;;;9.00;2.67;;;;;;;;;;6133228;23;20149;-90
2022/02/13 16:13:17;;;;;;;6.83;2.50;;;;;;;;;;6108615;23;20189;-90
2022/02/13 16:16:21;;;;;;;4.40;2.30;;;;;;;;;;6115983;23;20153;-91
2022/02/13 16:19:26;;;;;;;3.27;2.03;;;;;;;;;;6132386;23;20157;-90
2022/02/13 16:22:32;;;;;;;6.17;2.30;;;;;;;;;;6128112;23;20650;-90
2022/02/13 16:25:37;;;;;;;4.03;2.40;;;;;;;;;;6123337;23;20169;-90
2022/02/13 16:28:41;;;;;;;6.17;2.30;;;;;;;;;;6122752;23;20173;-90
2022/02/13 16:31:45;;;;;;;3.90;2.20;;;;;;;;;;6106452;23;20169;-90
2022/02/13 16:34:49;;;;;;;3.77;2.17;;;;;;;;;;6116130;23;20157;-90
2022/02/13 16:37:53;;;;;;;5.27;2.03;;;;;;;;;;6149456;23;20157;-89
2022/02/13 16:40:58;;;;;;;3.73;2.00;;;;;;;;;;6132338;23;20158;-90
2022/02/13 16:44:02;;;;;;;4.40;1.93;;;;;;;;;;6121955;23;20197;-89
2022/02/13 16:47:06;;;;;;;2.90;2.27;;;;;;;;;;6166228;23;20183;-89
2022/02/13 16:50:10;;;;;;;4.23;2.50;;;;;;;;;;6149425;23;20158;-89
2022/02/13 16:53:14;;;;;;;5.17;2.57;;;;;;;;;;6141713;23;20654;-89
2022/02/13 16:56:20;;;;;;;4.93;2.60;;;;;;;;;;6167724;23;20157;-88
2022/02/13 16:59:24;;;;;;;5.33;2.83;;;;;;;;;;6132273;23;20595;-89
2022/02/13 17:02:33;;;;;;;3.83;2.37;;;;;;;;;;6144922;23;20643;-87
2022/02/13 17:05:38;;;;;;;5.17;2.43;;;;;;;;;;6132707;23;20150;-87
2022/02/13 17:08:43;;;;;;;6.47;2.50;;;;;;;;;;6132270;23;20157;-89
2022/02/13 17:11:47;;;;;;;4.33;2.40;;;;;;;;;;6130468;23;20193;-88
2022/02/13 17:14:52;;;;;;;3.90;2.13;;;;;;;;;;6166453;23;20154;-87
2022/02/13 17:17:56;;;;;;;5.77;2.23;;;;;;;;;;6148975;23;20158;-87
2022/02/13 17:21:07;;;;;;;5.47;2.67;;;;;;;;;;6132134;23;20153;-87
2022/02/13 17:24:11;;;;;;;3.43;2.30;;;;;;;;;;6122331;23;20197;-87
2022/02/13 17:27:15;;;;;;;4.70;2.47;;;;;;;;;;6148872;23;20607;-88
2022/02/13 17:30:19;;;;;;;5.20;2.30;;;;;;;;;;6148951;23;20153;-87
2022/02/13 17:33:23;;;;;;;9.03;2.63;;;;;;;;;;6141305;23;20189;-87
2022/02/13 17:36:27;;;;;;;3.43;2.50;;;;;;;;;;6131854;23;20157;-87
2022/02/13 17:39:32;;;;;;;2.60;2.30;;;;;;;;;;6132195;23;20154;-88
2022/02/13 17:42:35;;;;;;;5.20;2.60;;;;;;;;;;6144043;23;20204;-87
2022/02/13 17:45:40;;;;;;;4.30;2.80;;;;;;;;;;6131682;23;20187;-87
2022/02/13 17:48:45;;;;;;;3.30;2.47;;;;;;;;;;6115189;23;20153;-87
2022/02/13 17:51:49;;;;;;;3.37;2.53;;;;;;;;;;6113539;23;20193;-87
2022/02/13 17:54:53;;;;;;;4.83;2.70;;;;;;;;;;6131927;23;20150;-87
2022/02/13 17:57:58;;;;;;;3.43;2.40;;;;;;;;;;6131941;23;20464;-87
2022/02/13 18:01:02;;;;;;;3.67;1.97;;;;;;;;;;6131787;23;20598;-87
2022/02/13 18:04:06;;;;;;;4.50;2.47;;;;;;;;;;6115322;23;20553;-87
2022/02/13 18:07:12;;;;;;;4.50;2.70;;;;;;;;;;6115017;23;20153;-89
2022/02/13 18:10:16;;;;;;;6.23;2.40;;;;;;;;;;6132500;23;21021;-87
2022/02/13 18:13:21;;;;;;;7.00;2.33;;;;;;;;;;6123640;23;20568;-87
2022/02/13 18:16:24;;;;;;;2.43;2.10;;;;;;;;;;6131331;23;20517;-87
2022/02/13 18:19:28;;;;;;;5.30;2.47;;;;;;;;;;6122554;23;20863;-87
2022/02/13 18:22:33;;;;;;;4.17;2.20;;;;;;;;;;6105067;23;20585;-87
2022/02/13 18:25:37;;;;;;;3.57;2.10;;;;;;;;;;6148524;23;20502;-87
2022/02/13 18:28:41;;;;;;;3.97;2.43;;;;;;;;;;6115251;23;20505;-87
2022/02/13 18:31:45;;;;;;;3.13;2.07;;;;;;;;;;6113638;23;20809;-87
2022/02/13 18:34:50;;;;;;;4.07;2.33;;;;;;;;;;6105067;23;20549;-88
2022/02/13 18:37:54;;;;;;;6.47;2.53;;;;;;;;;;6114861;23;20513;-87
2022/02/13 18:40:58;;;;;;;4.07;2.20;;;;;;;;;;6114247;23;20509;-87
2022/02/13 18:44:03;;;;;;;2.77;2.00;;;;;;;;;;6121120;23;20604;-87
2022/02/13 18:47:06;;;;;;;5.47;1.97;;;;;;;;;;6148627;23;21030;-87
2022/02/13 18:50:11;;;;;;;3.87;2.40;;;;;;;;;;6165558;23;20502;-87
2022/02/13 18:53:15;;;;;;;5.67;3.17;;;;;;;;;;6123823;23;20568;-87